Time;durP1;ratioP1;P1;durP2;ratioP2;P2;SDS_P1;SDS_P2;PMS_P1;PMS_P2;Temp;Humidity;BMP_temperature;BMP_pressure;BME280_temperature;BME280_humidity;BME280_pressure;Samples;Min_cycle;Max_cycle;Signal;HPM_P1;HPM_P2
2023/07/12 00:00:30;;;;;;;8.83;1.70;;;;;;;20.00;100.00;101514.63;4927931;29;20553;-78
2023/07/12 00:02:57;;;;;;;3.33;1.53;;;;;;;20.15;100.00;101528.50;4924650;29;20199;-76
2023/07/12 00:05:28;;;;;;;7.13;1.80;;;;;;;19.64;100.00;101456.78;4937293;28;20439;-77
2023/07/12 00:07:55;;;;;;;4.80;1.57;;;;;;;19.52;100.00;101467.72;4922245;29;21304;-77
2023/07/12 00:10:24;;;;;;;6.97;2.40;;;;;;;19.78;100.00;101484.56;4921691;29;20486;-76
2023/07/12 00:12:50;;;;;;;4.80;2.10;;;;;;;19.36;100.00;101404.03;4917929;29;20531;-76
2023/07/12 00:15:23;;;;;;;4.53;1.57;;;;;;;18.82;100.00;101332.03;4922112;29;20538;-76
2023/07/12 00:17:53;;;;;;;3.00;1.50;;;;;;;19.70;100.00;101444.13;4922019;29;20439;-78
2023/07/12 00:20:29;;;;;;;6.97;2.10;;;;;;;19.77;100.00;101444.81;4915614;29;20472;-78
2023/07/12 00:22:55;;;;;;;3.80;1.80;;;;;;;19.37;100.00;101397.53;4917458;29;20443;-79
2023/07/12 00:25:24;;;;;;;4.13;1.63;;;;;;;19.60;100.00;101391.13;4916859;29;20456;-79
2023/07/12 00:27:50;;;;;;;6.17;1.80;;;;;;;19.43;100.00;101421.03;4916921;29;20210;-77
2023/07/12 00:30:25;;;;;;;5.30;1.90;;;;;;;19.07;100.00;101384.19;4918339;29;20955;-78
2023/07/12 00:32:53;;;;;;;2.40;1.50;;;;;;;18.90;100.00;101328.94;4918203;29;20210;-78
2023/07/12 00:35:25;;;;;;;2.37;1.40;;;;;;;19.59;100.00;101413.97;4918859;29;20451;-77
2023/07/12 00:37:54;;;;;;;4.43;1.97;;;;;;;19.39;100.00;101405.47;4917977;29;20450;-77
2023/07/12 00:40:42;;;;;;;3.60;1.90;;;;;;;19.42;100.00;101416.66;4919745;29;20455;-78
2023/07/12 00:43:16;;;;;;;2.10;1.67;;;;;;;19.40;100.00;101420.69;4922515;29;20451;-78
2023/07/12 00:45:44;;;;;;;3.00;1.80;;;;;;;19.38;100.00;101392.91;4920949;29;20983;-76
2023/07/12 00:48:12;;;;;;;3.43;2.00;;;;;;;19.37;100.00;101407.59;4919525;29;20508;-76
2023/07/12 00:50:38;;;;;;;3.40;2.10;;;;;;;18.96;100.00;101308.94;4917936;29;20600;-76
2023/07/12 00:53:03;;;;;;;2.70;1.93;;;;;;;19.47;100.00;101394.19;4916656;29;20464;-76
2023/07/12 00:56:02;;;;;;;3.80;2.20;;;;;;;19.47;100.00;101387.88;4921001;29;20486;-76
2023/07/12 00:58:33;;;;;;;2.80;1.60;;;;;;;19.59;100.00;101392.22;4919537;29;20287;-76
2023/07/12 01:01:02;;;;;;;3.23;2.00;;;;;;;19.00;100.00;101342.72;4918778;29;20913;-75
2023/07/12 01:03:31;;;;;;;4.13;2.10;;;;;;;19.50;100.00;101373.78;4921000;29;20510;-76
2023/07/12 01:05:56;;;;;;;2.60;1.73;;;;;;;19.48;100.00;101354.19;4924659;29;20447;-77
2023/07/12 01:08:22;;;;;;;2.97;2.10;;;;;;;19.43;100.00;101344.03;4922086;29;20558;-76
2023/07/12 01:10:48;;;;;;;2.53;2.00;;;;;;;18.79;100.00;101235.50;4922879;29;20373;-76
2023/07/12 01:13:13;;;;;;;2.93;2.03;;;;;;;18.45;100.00;101199.25;4923547;29;20307;-76
2023/07/12 01:15:39;;;;;;;2.50;1.60;;;;;;;18.82;100.00;101231.47;4920604;29;20924;-75
2023/07/12 01:18:07;;;;;;;3.93;2.50;;;;;;;18.95;100.00;101242.88;4920615;29;20192;-74
2023/07/12 01:20:41;;;;;;;5.10;2.30;;;;;;;19.11;100.00;101281.19;4921016;29;20196;-75
2023/07/12 01:23:07;;;;;;;3.90;1.90;;;;;;;19.27;100.00;101328.53;4918529;29;21062;-75
2023/07/12 01:25:38;;;;;;;3.80;2.27;;;;;;;19.23;100.00;101332.81;4922775;29;20459;-76
2023/07/12 01:28:04;;;;;;;5.03;2.13;;;;;;;19.14;100.00;101327.75;4922361;29;20466;-78
2023/07/12 01:30:31;;;;;;;4.50;2.20;;;;;;;19.10;100.00;101276.84;4924942;29;20487;-76
2023/07/12 01:32:56;;;;;;;4.33;2.47;;;;;;;19.26;100.00;101302.41;4924286;29;20451;-79
2023/07/12 01:35:22;;;;;;;3.10;2.00;;;;;;;19.51;100.00;101334.66;4924858;29;20965;-78
2023/07/12 01:37:47;;;;;;;3.60;2.50;;;;;;;19.11;100.00;101322.81;4922116;29;20192;-76
2023/07/12 01:40:13;;;;;;;4.57;2.37;;;;;;;18.73;100.00;101220.16;4922759;29;20223;-76
2023/07/12 01:42:38;;;;;;;5.47;2.30;;;;;;;18.81;100.00;101263.28;4925106;29;20199;-78
2023/07/12 01:45:04;;;;;;;4.50;2.23;;;;;;;19.31;100.00;101349.53;4923754;29;20184;-79
2023/07/12 01:47:30;;;;;;;6.55;3.00;;;;;;;19.06;100.00;101354.50;4938128;29;20192;-77
2023/07/12 01:49:56;;;;;;;;;;;;;;;19.01;100.00;101338.94;4921176;29;20540;-78
2023/07/12 01:52:21;;;;;;;4.60;2.60;;;;;;;18.44;100.00;101236.44;4923844;29;20267;-79
2023/07/12 01:54:47;;;;;;;4.37;2.70;;;;;;;18.85;100.00;101317.97;4923269;29;21010;-77
2023/07/12 01:57:12;;;;;;;5.00;2.97;;;;;;;18.21;100.00;101215.63;4923855;29;20656;-77
2023/07/12 01:59:37;;;;;;;4.20;2.93;;;;;;;18.87;100.00;101330.25;4921603;29;20211;-79
2023/07/12 02:02:03;;;;;;;3.87;2.60;;;;;;;18.41;100.00;101280.38;4922769;29;20192;-80
2023/07/12 02:04:28;;;;;;;2.50;2.10;;;;;;;18.24;100.00;101226.00;4921631;29;20195;-79
2023/07/12 02:06:54;;;;;;;2.90;2.30;;;;;;;18.90;100.00;101321.59;4920813;29;20648;-76
2023/07/12 02:09:19;;;;;;;2.87;2.17;;;;;;;17.96;100.00;101177.09;4921110;29;20300;-79
2023/07/12 02:11:45;;;;;;;2.80;1.93;;;;;;;18.30;100.00;101238.59;4920405;29;20672;-79
2023/07/12 02:14:10;;;;;;;4.50;2.47;;;;;;;18.11;100.00;101204.56;4924259;29;20204;-79
2023/07/12 02:16:35;;;;;;;2.50;1.63;;;;;;;17.89;100.00;101208.97;4922278;29;20216;-80
2023/07/12 02:19:02;;;;;;;3.57;1.90;;;;;;;18.56;100.00;101254.59;4922960;29;20684;-78
2023/07/12 02:21:27;;;;;;;3.13;1.70;;;;;;;18.99;100.00;101307.63;4924361;29;20199;-78
2023/07/12 02:23:53;;;;;;;3.93;1.70;;;;;;;18.90;100.00;101315.34;4924084;29;20439;-78
2023/07/12 02:26:18;;;;;;;4.83;1.80;;;;;;;18.86;100.00;101303.28;4923696;29;20191;-77
2023/07/12 02:28:44;;;;;;;2.90;1.90;;;;;;;18.98;100.00;101314.97;4919637;29;20242;-78
2023/07/12 02:31:21;;;;;;;3.23;1.57;;;;;;;18.24;100.00;101219.75;4921270;29;20212;-77
2023/07/12 02:33:48;;;;;;;3.33;1.70;;;;;;;18.23;100.00;101226.25;4928108;29;20183;-78
2023/07/12 02:36:13;;;;;;;5.93;2.37;;;;;;;18.86;100.00;101287.84;4923776;29;20891;-78
2023/07/12 02:38:39;;;;;;;2.90;1.80;;;;;;;18.73;100.00;101279.94;4923739;29;20456;-78
2023/07/12 02:41:06;;;;;;;4.70;2.20;;;;;;;18.68;100.00;101267.06;4922591;29;20194;-78
2023/07/12 02:43:32;;;;;;;5.07;1.97;;;;;;;19.17;100.00;101308.22;4920971;29;20250;-76
2023/07/12 02:45:57;;;;;;;3.83;1.77;;;;;;;19.07;100.00;101286.31;4923768;29;20463;-78
2023/07/12 02:48:23;;;;;;;4.70;2.13;;;;;;;18.39;100.00;101225.47;4922880;29;20266;-78
2023/07/12 02:50:48;;;;;;;2.33;1.70;;;;;;;18.61;100.00;101268.28;4922325;29;20629;-79
2023/07/12 02:53:18;;;;;;;5.83;2.10;;;;;;;18.76;100.00;101319.41;4922094;29;25615;-78
2023/07/12 02:55:48;;;;;;;3.50;1.80;;;;;;;18.25;100.00;101234.97;4921776;29;20210;-77
2023/07/12 02:58:13;;;;;;;8.73;2.13;;;;;;;18.45;100.00;101297.00;4922200;29;20550;-78
2023/07/12 03:00:39;;;;;;;4.10;1.87;;;;;;;18.39;100.00;101211.06;4926167;29;20428;-77
2023/07/12 03:03:05;;;;;;;2.03;1.47;;;;;;;18.45;100.00;101229.94;4923597;29;20270;-79
2023/07/12 03:05:33;;;;;;;3.97;1.87;;;;;;;19.22;100.00;101323.00;4925182;29;20463;-77
2023/07/12 03:07:59;;;;;;;5.07;2.13;;;;;;;18.31;100.00;101266.56;4925817;29;20715;-78
2023/07/12 03:10:24;;;;;;;5.30;2.00;;;;;;;18.53;100.00;101372.72;4925705;28;20999;-79
2023/07/12 03:12:50;;;;;;;3.77;2.30;;;;;;;18.11;100.00;101266.16;4926535;29;20191;-78
2023/07/12 03:15:15;;;;;;;6.33;2.77;;;;;;;18.42;100.00;101303.75;4925970;29;20191;-79
2023/07/12 03:17:40;;;;;;;5.90;2.90;;;;;;;18.26;100.00;101242.06;4925026;29;20212;-79
2023/07/12 03:20:06;;;;;;;4.70;2.17;;;;;;;18.17;100.00;101209.03;4924085;29;20278;-78
2023/07/12 03:22:32;;;;;;;5.60;2.27;;;;;;;18.49;100.00;101296.31;4922310;29;20192;-77
2023/07/12 03:24:57;;;;;;;4.93;2.23;;;;;;;18.78;100.00;101287.41;4936202;28;20459;-78
2023/07/12 03:27:23;;;;;;;6.20;2.40;;;;;;;17.65;100.00;101180.97;4916442;29;20789;-76
2023/07/12 03:29:48;;;;;;;8.23;2.87;;;;;;;18.20;100.00;101287.28;4917903;29;20251;-80
2023/07/12 03:32:14;;;;;;;5.27;2.33;;;;;;;18.02;100.00;101205.97;4925283;29;20578;-78
2023/07/12 03:34:39;;;;;;;5.83;2.60;;;;;;;17.56;100.00;101218.50;4922506;29;20207;-76
2023/07/12 03:37:05;;;;;;;9.57;2.60;;;;;;;17.24;100.00;101123.97;4924035;29;20280;-77
2023/07/12 03:39:30;;;;;;;8.37;3.00;;;;;;;17.72;100.00;101151.88;4916353;29;20294;-79
2023/07/12 03:41:55;;;;;;;5.53;2.10;;;;;;;18.07;100.00;101200.66;4922609;29;20633;-78
2023/07/12 03:44:21;;;;;;;5.50;2.50;;;;;;;17.57;100.00;101145.03;4921852;29;20637;-77
2023/07/12 03:46:46;;;;;;;5.40;3.00;;;;;;;18.28;100.00;101235.31;4932761;28;20196;-77
2023/07/12 03:49:13;;;;;;;4.97;2.60;;;;;;;18.44;100.00;101208.47;4922958;29;20230;-76
2023/07/12 03:51:38;;;;;;;6.73;2.43;;;;;;;18.73;100.00;101231.00;4919690;29;21269;-78
2023/07/12 03:54:03;;;;;;;6.43;2.63;;;;;;;17.91;100.00;101180.53;4920610;29;20436;-76
2023/07/12 03:56:29;;;;;;;6.87;2.57;;;;;;;18.07;100.00;101234.06;4922991;29;20203;-77
2023/07/12 03:58:54;;;;;;;6.13;2.70;;;;;;;17.92;100.00;101162.34;4921917;29;20212;-76
2023/07/12 04:01:20;;;;;;;4.17;2.40;;;;;;;18.51;100.00;101287.91;4920001;29;20196;-78
2023/07/12 04:03:46;;;;;;;12.00;3.17;;;;;;;17.92;100.00;101138.75;4919752;29;20206;-77
2023/07/12 04:06:12;;;;;;;6.60;2.90;;;;;;;18.56;100.00;101288.00;4915843;29;20195;-78
2023/07/12 04:08:38;;;;;;;8.83;2.80;;;;;;;18.41;100.00;101326.56;4915503;29;20464;-77
2023/07/12 04:11:05;;;;;;;9.33;2.53;;;;;;;17.73;100.00;101214.00;4920766;29;20820;-78
2023/07/12 04:13:31;;;;;;;5.43;2.60;;;;;;;18.61;100.00;101347.06;4920101;29;20834;-80
2023/07/12 04:15:59;;;;;;;8.87;2.97;;;;;;;18.65;100.00;101359.09;4922649;29;20458;-78
2023/07/12 04:18:25;;;;;;;8.73;2.67;;;;;;;18.22;100.00;101344.03;4921823;29;20216;-79
2023/07/12 04:20:55;;;;;;;6.30;2.60;;;;;;;17.50;100.00;101165.19;4923425;29;20443;-78
2023/07/12 04:23:21;;;;;;;7.93;2.70;;;;;;;18.01;100.00;101267.59;4917411;29;20529;-79
2023/07/12 04:25:47;;;;;;;9.30;3.20;;;;;;;18.52;100.00;101352.06;4932675;29;20556;-79
2023/07/12 04:28:13;;;;;;;9.40;3.13;;;;;;;18.30;100.00;101346.41;4918572;29;21069;-78
2023/07/12 04:30:38;;;;;;;9.33;3.17;;;;;;;18.11;100.00;101332.16;4913192;29;20214;-77
2023/07/12 04:33:05;;;;;;;9.85;3.35;;;;;;;18.01;100.00;101337.34;4918089;29;20456;-79
2023/07/12 04:35:30;;;;;;;6.80;2.80;;;;;;;18.03;100.00;101335.22;4921428;29;20599;-79
2023/07/12 04:37:56;;;;;;;7.37;2.80;;;;;;;17.81;100.00;101333.06;4922568;29;20443;-77
2023/07/12 04:40:22;;;;;;;11.43;2.97;;;;;;;16.88;100.00;101198.16;4922138;29;20458;-77
2023/07/12 04:42:47;;;;;;;8.70;2.80;;;;;;;17.61;100.00;101281.00;4924391;29;20187;-77
2023/07/12 04:45:13;;;;;;;8.17;2.90;;;;;;;17.46;100.00;101261.66;4921753;29;20666;-78
2023/07/12 04:47:42;;;;;;;8.67;3.13;;;;;;;17.31;100.00;101281.91;4927090;29;20203;-79
2023/07/12 04:50:09;;;;;;;8.20;3.60;;;;;;;17.03;100.00;101243.78;4923743;29;20459;-78
2023/07/12 04:52:35;;;;;;;8.30;3.20;;;;;;;17.76;100.00;101340.22;4922391;29;20443;-77
2023/07/12 04:55:04;;;;;;;8.70;3.40;;;;;;;17.77;100.00;101331.03;4917264;29;20459;-80
2023/07/12 04:57:29;;;;;;;11.80;4.70;;;;;;;17.66;100.00;101362.50;4921409;29;20183;-80
2023/07/12 04:59:55;;;;;;;10.05;3.40;;;;;;;17.48;100.00;101322.75;4918870;29;20557;-77
2023/07/12 05:02:20;;;;;;;8.60;3.33;;;;;;;17.57;100.00;101325.94;4921334;29;20309;-76
2023/07/12 05:04:46;;;;;;;10.70;3.10;;;;;;;17.67;100.00;101344.34;4916685;29;20970;-79
2023/07/12 05:07:11;;;;;;;11.55;3.65;;;;;;;17.21;100.00;101278.09;4915663;29;20439;-78
2023/07/12 05:09:37;;;;;;;9.40;3.50;;;;;;;16.99;100.00;101238.00;4917955;29;20296;-80
2023/07/12 05:12:03;;;;;;;9.15;2.70;;;;;;;17.20;100.00;101281.88;4918388;29;20767;-81
2023/07/12 05:14:29;;;;;;;11.03;3.50;;;;;;;17.79;100.00;101356.91;4916707;29;20441;-79
2023/07/12 05:16:54;;;;;;;9.47;3.37;;;;;;;16.78;100.00;101269.16;4917759;29;20448;-75
2023/07/12 05:19:20;;;;;;;9.60;3.70;;;;;;;17.25;100.00;101290.97;4919192;29;20595;-77
2023/07/12 05:21:45;;;;;;;11.50;3.70;;;;;;;17.64;100.00;101334.78;4917652;29;20240;-76
2023/07/12 05:24:11;;;;;;;9.60;3.60;;;;;;;17.64;100.00;101361.91;4918669;29;20436;-78
2023/07/12 05:26:36;;;;;;;13.60;2.90;;;;;;;17.76;100.00;101360.06;4917618;29;20432;-78
2023/07/12 05:29:03;;;;;;;11.45;3.20;;;;;;;17.59;100.00;101357.19;4918118;29;20207;-76
2023/07/12 05:31:28;;;;;;;10.50;3.35;;;;;;;17.80;100.00;101342.28;4909525;29;20312;-77
2023/07/12 05:33:54;;;;;;;9.50;3.40;;;;;;;17.78;100.00;101340.84;4916762;29;20536;-77
2023/07/12 05:36:19;;;;;;;12.50;3.90;;;;;;;17.60;100.00;101341.75;4913731;29;20200;-78
2023/07/12 05:38:45;;;;;;;7.43;3.27;;;;;;;17.98;100.00;101364.94;4918745;29;20693;-76
2023/07/12 05:41:11;;;;;;;9.70;3.90;;;;;;;17.86;100.00;101307.13;4910485;29;20206;-77
2023/07/12 05:43:36;;;;;;;11.30;4.05;;;;;;;17.87;100.00;101363.03;4918536;29;20413;-75
2023/07/12 05:46:03;;;;;;;11.80;3.80;;;;;;;17.93;100.00;101368.34;4918488;29;20199;-73
2023/07/12 05:48:29;;;;;;;9.70;3.43;;;;;;;16.88;100.00;101226.06;4917645;29;20205;-79
2023/07/12 05:50:58;;;;;;;9.90;3.10;;;;;;;17.84;100.00;101378.72;4916892;29;20522;-76
2023/07/12 05:53:23;;;;;;;13.20;4.50;;;;;;;17.66;100.00;101373.38;4920586;29;20453;-75
2023/07/12 05:55:55;;;;;;;7.80;3.20;;;;;;;18.00;100.00;101390.78;4923290;29;20940;-76
2023/07/12 05:58:20;;;;;;;6.90;3.40;;;;;;;17.67;100.00;101364.16;4926845;29;20205;-79
2023/07/12 06:00:46;;;;;;;11.47;3.70;;;;;;;17.22;100.00;101260.81;4925245;29;20984;-76
2023/07/12 06:03:11;;;;;;;10.50;4.00;;;;;;;17.69;100.00;101364.75;4924243;29;20740;-76
2023/07/12 06:05:41;;;;;;;8.20;3.80;;;;;;;17.80;100.00;101353.13;4927340;29;20184;-77
2023/07/12 06:08:06;;;;;;;12.10;4.20;;;;;;;17.27;100.00;101272.59;4924996;29;20740;-74
2023/07/12 06:10:32;;;;;;;;;;;;;;;17.80;100.00;101347.69;4922146;29;20957;-75
2023/07/12 06:12:57;;;;;;;8.60;3.90;;;;;;;17.66;100.00;101335.38;4922508;29;20433;-74
2023/07/12 06:15:22;;;;;;;12.37;3.60;;;;;;;17.65;100.00;101322.91;4921621;29;20194;-74
2023/07/12 06:17:48;;;;;;;8.13;3.10;;;;;;;16.83;100.00;101155.50;4921598;29;20250;-77
2023/07/12 06:20:13;;;;;;;10.07;3.07;;;;;;;17.88;100.00;101348.41;4935036;28;20219;-76
2023/07/12 06:22:39;;;;;;;13.43;3.87;;;;;;;17.59;100.00;101302.13;4934558;28;20191;-76
2023/07/12 06:25:06;;;;;;;10.73;4.30;;;;;;;17.86;100.00;101362.22;4920734;29;20189;-75
2023/07/12 06:27:31;;;;;;;13.03;3.73;;;;;;;17.68;100.00;101302.63;4924395;29;20280;-77
2023/07/12 06:29:56;;;;;;;10.80;3.53;;;;;;;18.16;100.00;101375.69;4920535;29;20972;-78
2023/07/12 06:32:22;;;;;;;12.53;4.33;;;;;;;17.90;100.00;101347.13;4918053;29;20675;-76
2023/07/12 06:34:47;;;;;;;8.37;3.53;;;;;;;17.96;100.00;101346.16;4924166;29;20544;-77
2023/07/12 06:37:13;;;;;;;9.57;3.53;;;;;;;17.15;100.00;101258.19;4925078;29;20192;-75
2023/07/12 06:39:38;;;;;;;8.47;3.90;;;;;;;17.84;100.00;101376.00;4923630;29;20215;-76
2023/07/12 06:42:04;;;;;;;12.40;3.80;;;;;;;18.13;100.00;101403.31;4923721;29;20247;-75
2023/07/12 06:44:30;;;;;;;15.90;4.40;;;;;;;17.99;100.00;101389.16;4923498;29;20201;-80
2023/07/12 06:46:55;;;;;;;9.23;4.00;;;;;;;17.63;100.00;101335.84;4921017;29;20240;-76
2023/07/12 06:49:21;;;;;;;7.17;3.30;;;;;;;18.02;100.00;101355.25;4922354;29;20295;-78
2023/07/12 06:51:46;;;;;;;9.60;3.80;;;;;;;17.82;100.00;101315.75;4922885;29;20256;-78
2023/07/12 06:54:14;;;;;;;7.93;3.77;;;;;;;17.58;100.00;101346.56;4920370;29;20200;-74
2023/07/12 06:56:40;;;;;;;10.07;3.97;;;;;;;17.36;100.00;101352.53;4924438;29;20195;-79
2023/07/12 06:59:06;;;;;;;8.90;4.13;;;;;;;18.11;100.00;101405.44;4921686;29;20482;-75
2023/07/12 07:01:31;;;;;;;9.10;3.50;;;;;;;18.10;100.00;101376.63;4921036;29;20451;-75
2023/07/12 07:03:57;;;;;;;10.33;3.73;;;;;;;17.34;100.00;101258.94;4934371;28;20212;-75
2023/07/12 07:06:22;;;;;;;8.77;3.40;;;;;;;17.66;100.00;101332.69;4919822;29;20199;-74
2023/07/12 07:08:47;;;;;;;11.40;3.90;;;;;;;18.26;100.00;101410.41;4919817;29;20208;-75
2023/07/12 07:11:13;;;;;;;10.30;3.70;;;;;;;18.47;100.00;101417.13;4919734;29;20216;-79
2023/07/12 07:13:38;;;;;;;9.20;3.70;;;;;;;17.88;100.00;101305.84;4922997;29;20274;-77
2023/07/12 07:16:04;;;;;;;10.53;3.60;;;;;;;18.59;100.00;101388.03;4938323;29;20211;-76
2023/07/12 07:18:29;;;;;;;13.13;4.13;;;;;;;18.49;100.00;101402.25;4916627;29;20219;-74
2023/07/12 07:20:58;;;;;;;13.10;3.80;;;;;;;18.14;100.00;101399.53;4937495;28;20198;-76
2023/07/12 07:23:24;;;;;;;8.60;3.37;;;;;;;18.49;100.00;101439.44;4919562;29;20668;-80
2023/07/12 07:25:49;;;;;;;9.73;3.97;;;;;;;18.33;100.00;101378.50;4915412;29;20463;-77
2023/07/12 07:28:15;;;;;;;8.37;4.30;;;;;;;18.64;100.00;101460.69;4922840;29;20720;-76
2023/07/12 07:30:41;;;;;;;12.17;4.83;;;;;;;17.55;100.00;101322.63;4923591;29;20208;-80
2023/07/12 07:33:06;;;;;;;9.43;3.90;;;;;;;18.80;100.00;101456.44;4921238;29;20654;-76
2023/07/12 07:35:32;;;;;;;11.40;3.80;;;;;;;18.32;100.00;101381.47;4922711;29;20280;-75
2023/07/12 07:37:57;;;;;;;12.90;3.70;;;;;;;19.23;100.00;101488.63;4921690;29;20227;-74
2023/07/12 07:40:23;;;;;;;10.27;3.20;;;;;;;19.29;100.00;101489.56;4918231;29;20239;-76
2023/07/12 07:42:48;;;;;;;14.70;3.97;;;;;;;19.10;100.00;101497.91;4923005;29;20660;-77
2023/07/12 07:45:13;;;;;;;10.80;3.57;;;;;;;19.01;100.00;101490.34;4924663;29;20199;-75
2023/07/12 07:47:39;;;;;;;10.13;3.37;;;;;;;18.52;100.00;101437.09;4916375;29;20309;-79
2023/07/12 07:50:06;;;;;;;8.10;3.87;;;;;;;17.35;100.00;101264.09;4921344;29;20219;-75
2023/07/12 07:52:31;;;;;;;8.53;3.67;;;;;;;19.07;100.00;101522.03;4921661;29;20697;-78
2023/07/12 07:54:58;;;;;;;9.23;3.60;;;;;;;19.26;100.00;101518.06;4933062;28;20531;-76
2023/07/12 07:57:23;;;;;;;12.57;3.97;;;;;;;18.93;100.00;101519.53;4923285;29;20188;-78
2023/07/12 07:59:48;;;;;;;14.20;3.70;;;;;;;19.05;100.00;101516.81;4920289;29;20471;-78
2023/07/12 08:02:14;;;;;;;10.70;3.30;;;;;;;19.04;100.00;101526.03;4920824;29;20259;-74
2023/07/12 08:04:40;;;;;;;9.80;3.20;;;;;;;18.94;100.00;101504.06;4917072;29;20820;-75
2023/07/12 08:07:07;;;;;;;;;;;;;;;19.05;100.00;101548.63;4920780;29;20180;-75
2023/07/12 08:09:35;;;;;;;7.65;3.10;;;;;;;18.29;100.00;101443.34;4921003;29;20525;-81
2023/07/12 08:12:01;;;;;;;7.47;3.13;;;;;;;18.52;100.00;101490.59;4920133;29;20475;-77
2023/07/12 08:14:27;;;;;;;8.10;3.80;;;;;;;18.45;100.00;101498.84;4920399;29;20538;-74
2023/07/12 08:16:52;;;;;;;;;;;;;;;18.94;100.00;101544.84;4920720;29;20504;-79
2023/07/12 08:19:18;;;;;;;8.93;3.50;;;;;;;19.05;100.00;101548.63;4918400;29;20212;-75
2023/07/12 08:21:44;;;;;;;9.53;2.90;;;;;;;17.92;100.00;101387.59;4920221;29;20195;-79
2023/07/12 08:24:09;;;;;;;14.35;2.95;;;;;;;19.14;100.00;101552.63;4919442;29;20244;-76
2023/07/12 08:26:34;;;;;;;6.80;2.80;;;;;;;18.79;100.00;101537.16;4915219;29;20181;-74
2023/07/12 08:29:00;;;;;;;9.85;2.95;;;;;;;18.76;100.00;101520.50;4917489;29;20204;-73
2023/07/12 08:31:25;;;;;;;7.95;2.50;;;;;;;18.93;100.00;101545.91;4920018;29;20257;-75
2023/07/12 08:33:51;;;;;;;8.20;2.70;;;;;;;18.75;100.00;101500.66;4920730;29;20207;-74
2023/07/12 08:36:17;;;;;;;8.40;2.67;;;;;;;18.59;100.00;101450.53;4932992;28;20228;-74
2023/07/12 08:38:43;;;;;;;10.33;2.67;;;;;;;19.10;100.00;101557.72;4919257;29;20223;-74
2023/07/12 08:41:15;;;;;;;6.55;2.10;;;;;;;19.23;100.00;101523.97;4920150;29;20234;-75
2023/07/12 08:43:40;;;;;;;9.40;3.20;;;;;;;19.49;100.00;101544.38;4922196;29;20502;-75
2023/07/12 08:46:15;;;;;;;11.77;3.00;;;;;;;19.37;100.00;101568.06;4921399;29;20446;-75
2023/07/12 08:48:42;;;;;;;6.30;2.37;;;;;;;19.26;100.00;101552.59;4919063;29;20210;-74
2023/07/12 08:51:15;;;;;;;5.80;2.50;;;;;;;19.25;100.00;101504.72;4917855;29;20476;-74
2023/07/12 08:53:42;;;;;;;10.13;3.20;;;;;;;18.90;100.00;101492.03;4921531;29;20455;-75
2023/07/12 08:56:12;;;;;;;7.77;2.90;;;;;;;19.13;100.00;101570.84;4919909;29;20462;-76
2023/07/12 08:58:43;;;;;;;11.90;3.90;;;;;;;19.07;100.00;101571.78;4933657;28;20503;-78
2023/07/12 09:01:19;;;;;;;10.60;3.90;;;;;;;18.64;100.00;101559.34;4917693;29;20546;-88
2023/07/12 09:03:44;;;;;;;6.90;2.80;;;;;;;17.79;100.00;101491.72;4917473;29;20459;-88
2023/07/12 09:06:15;;;;;;;4.40;1.90;;;;;;;17.73;100.00;101479.88;4920722;29;20447;-84
2023/07/12 09:08:49;;;;;;;5.00;1.80;;;;;;;18.33;100.00;101532.47;4936310;28;20498;-83
2023/07/12 09:11:19;;;;;;;7.70;3.20;;;;;;;18.27;100.00;101529.63;4918265;29;20472;-82
2023/07/12 09:13:46;;;;;;;10.05;2.45;;;;;;;17.32;100.00;101448.94;4919488;29;20474;-86
2023/07/12 09:16:33;;;;;;;8.90;2.93;;;;;;;18.44;100.00;101518.91;4920299;29;20563;-84
2023/07/12 09:19:11;;;;;;;9.20;3.00;;;;;;;17.76;100.00;101391.78;4917849;29;20463;-84
2023/07/12 09:21:37;;;;;;;12.23;3.27;;;;;;;18.45;100.00;101549.63;4919522;29;20479;-86
2023/07/12 09:24:12;;;;;;;8.50;3.10;;;;;;;17.91;100.00;101437.53;4928761;28;20547;-86
2023/07/12 09:26:38;;;;;;;6.53;3.23;;;;;;;18.91;100.00;101535.25;4922080;29;20482;-86
2023/07/12 09:29:21;;;;;;;10.03;3.33;;;;;;;18.96;100.00;101545.44;4920194;29;20915;-86
2023/07/12 09:31:47;;;;;;;11.20;3.57;;;;;;;18.19;100.00;101431.41;4921825;29;20266;-83
2023/07/12 09:34:25;;;;;;;7.63;2.70;;;;;;;17.87;100.00;101363.03;4920548;29;20819;-83
2023/07/12 09:36:58;;;;;;;7.30;2.80;;;;;;;18.22;100.00;101447.22;4922924;29;20198;-82
2023/07/12 09:39:28;;;;;;;6.03;2.67;;;;;;;19.38;100.00;101591.47;4920149;29;21201;-82
2023/07/12 09:41:57;;;;;;;8.00;3.73;;;;;;;19.07;100.00;101579.94;4922908;29;20544;-82
2023/07/12 09:44:22;;;;;;;9.80;2.83;;;;;;;18.36;100.00;101494.81;4926919;29;20424;-82
2023/07/12 09:46:48;;;;;;;5.10;2.40;;;;;;;18.95;100.00;101579.94;4927908;29;20468;-81
2023/07/12 09:49:58;;;;;;;7.57;2.60;;;;;;;19.11;100.00;101572.94;4922144;29;20222;-85
2023/07/12 09:52:31;;;;;;;8.03;3.00;;;;;;;19.24;100.00;101585.50;4926534;29;20328;-82
2023/07/12 09:55:16;;;;;;;6.17;2.40;;;;;;;18.43;100.00;101486.56;4927381;29;20820;-84
2023/07/12 09:58:39;;;;;;;5.80;2.23;;;;;;;18.89;100.00;101556.44;4920895;29;21035;-83
2023/07/12 10:01:21;;;;;;;8.40;2.80;;;;;;;18.82;100.00;101516.84;4910964;29;20571;-84
2023/07/12 10:03:55;;;;;;;8.00;3.23;;;;;;;18.92;100.00;101566.00;4925768;29;20514;-83
2023/07/12 10:06:37;;;;;;;10.73;2.43;;;;;;;18.97;100.00;101591.41;4924351;29;20867;-83
2023/07/12 10:09:13;;;;;;;7.40;2.27;;;;;;;19.27;100.00;101601.34;4920946;29;22305;-87
2023/07/12 10:11:50;;;;;;;8.70;2.70;;;;;;;18.73;100.00;101473.72;4921525;29;20480;-82
2023/07/12 10:14:18;;;;;;;6.50;2.60;;;;;;;19.59;100.00;101590.03;4920353;29;20898;-74
2023/07/12 10:16:51;;;;;;;7.27;2.33;;;;;;;19.62;100.00;101627.66;4919781;29;20589;-80
2023/07/12 10:19:38;;;;;;;4.63;1.87;;;;;;;18.60;100.00;101528.28;4921885;29;20513;-79
2023/07/12 10:22:11;;;;;;;6.77;2.20;;;;;;;19.07;100.00;101590.00;4925387;29;20436;-80
2023/07/12 10:24:42;;;;;;;6.60;2.60;;;;;;;19.24;100.00;101587.34;4919132;29;20448;-77
2023/07/12 10:27:17;;;;;;;6.90;2.70;;;;;;;19.87;100.00;101632.81;4919569;29;20444;-80
2023/07/12 10:29:48;;;;;;;4.20;2.00;;;;;;;19.80;100.00;101643.84;4921351;29;20471;-83
2023/07/12 10:32:27;;;;;;;5.43;2.20;;;;;;;19.86;100.00;101647.50;4921331;29;21038;-83
2023/07/12 10:35:29;;;;;;;6.23;2.40;;;;;;;19.72;100.00;101635.22;4922789;29;20443;-78
2023/07/12 10:38:11;;;;;;;4.67;1.50;;;;;;;19.43;100.00;101610.63;4918619;29;20463;-80
2023/07/12 10:40:42;;;;;;;9.80;2.87;;;;;;;18.89;100.00;101550.16;4923162;29;20526;-81
2023/07/12 10:43:24;;;;;;;6.90;2.10;;;;;;;19.54;100.00;101634.28;4920656;29;20819;-80
2023/07/12 10:45:55;;;;;;;10.17;2.33;;;;;;;18.58;100.00;101500.50;4938533;29;20447;-79
2023/07/12 10:48:26;;;;;;;4.77;2.30;;;;;;;19.32;100.00;101611.47;4921061;29;20479;-84
2023/07/12 10:50:55;;;;;;;5.20;2.53;;;;;;;19.73;100.00;101645.03;4923893;29;20467;-80
2023/07/12 10:53:23;;;;;;;5.30;2.23;;;;;;;19.90;100.00;101636.94;4920877;29;20462;-81
2023/07/12 10:56:07;;;;;;;5.87;1.60;;;;;;;20.23;100.00;101649.88;4921882;29;20499;-82
2023/07/12 10:58:48;;;;;;;5.80;2.13;;;;;;;20.20;100.00;101670.25;4921798;29;20464;-77
2023/07/12 11:01:41;;;;;;;5.40;2.37;;;;;;;20.38;100.00;101687.47;4921025;29;20854;-80
2023/07/12 11:04:14;;;;;;;7.60;2.30;;;;;;;19.29;100.00;101593.75;4921216;29;20951;-79
2023/07/12 11:06:55;;;;;;;7.87;2.30;;;;;;;19.70;100.00;101668.13;4919491;29;20458;-77
2023/07/12 11:09:21;;;;;;;7.17;2.40;;;;;;;19.64;100.00;101645.41;4921797;29;20467;-77
2023/07/12 11:11:58;;;;;;;5.63;2.10;;;;;;;19.43;100.00;101616.06;4919582;29;20482;-78
2023/07/12 11:14:43;;;;;;;5.70;1.80;;;;;;;19.28;100.00;101529.53;4925450;29;20451;-82
2023/07/12 11:17:11;;;;;;;9.60;2.90;;;;;;;20.18;100.00;101710.50;4928381;29;20447;-80
2023/07/12 11:19:39;;;;;;;4.90;2.03;;;;;;;20.22;100.00;101692.63;4923755;29;20478;-78
2023/07/12 11:22:18;;;;;;;4.50;1.80;;;;;;;20.52;100.00;101706.03;4920929;29;20447;-79